sensor_id;sensor_type;location;lat;lon;timestamp;temperature;humidity
10089;DHT22;51898;49.864;8.550;2023-05-10T00:02:38;13.40;96.80
10089;DHT22;51898;49.864;8.550;2023-05-10T00:05:41;13.40;96.90
10089;DHT22;51898;49.864;8.550;2023-05-10T00:08:43;13.40;97.20
10089;DHT22;51898;49.864;8.550;2023-05-10T00:11:44;13.40;97.10
10089;DHT22;51898;49.864;8.550;2023-05-10T00:14:46;13.40;97.10
10089;DHT22;51898;49.864;8.550;2023-05-10T00:17:48;13.40;97.10
10089;DHT22;51898;49.864;8.550;2023-05-10T00:20:49;13.40;97.40
10089;DHT22;51898;49.864;8.550;2023-05-10T00:23:51;13.40;97.70
10089;DHT22;51898;49.864;8.550;2023-05-10T00:26:53;13.40;97.90
10089;DHT22;51898;49.864;8.550;2023-05-10T00:29:54;13.40;98.00
10089;DHT22;51898;49.864;8.550;2023-05-10T00:32:56;13.40;97.70
10089;DHT22;51898;49.864;8.550;2023-05-10T00:35:57;13.40;98.00
10089;DHT22;51898;49.864;8.550;2023-05-10T00:38:59;13.40;97.80
10089;DHT22;51898;49.864;8.550;2023-05-10T00:42:01;13.50;98.00
10089;DHT22;51898;49.864;8.550;2023-05-10T00:45:03;13.50;98.00
10089;DHT22;51898;49.864;8.550;2023-05-10T00:48:05;13.50;98.00
10089;DHT22;51898;49.864;8.550;2023-05-10T00:51:06;13.50;98.10
10089;DHT22;51898;49.864;8.550;2023-05-10T00:54:10;13.50;97.90
10089;DHT22;51898;49.864;8.550;2023-05-10T00:57:13;13.50;97.90
10089;DHT22;51898;49.864;8.550;2023-05-10T01:00:15;13.50;97.50
10089;DHT22;51898;49.864;8.550;2023-05-10T01:03:19;13.50;97.50
10089;DHT22;51898;49.864;8.550;2023-05-10T01:06:21;13.50;97.30
10089;DHT22;51898;49.864;8.550;2023-05-10T01:09:24;13.50;97.20
10089;DHT22;51898;49.864;8.550;2023-05-10T01:12:27;13.50;97.00
10089;DHT22;51898;49.864;8.550;2023-05-10T01:15:30;13.60;96.80
10089;DHT22;51898;49.864;8.550;2023-05-10T01:18:38;13.50;96.60
10089;DHT22;51898;49.864;8.550;2023-05-10T01:35:10;13.60;96.70
10089;DHT22;51898;49.864;8.550;2023-05-10T01:41:56;13.60;96.70
10089;DHT22;51898;49.864;8.550;2023-05-10T01:45:11;13.60;96.80
10089;DHT22;51898;49.864;8.550;2023-05-10T01:48:15;13.50;96.80
10089;DHT22;51898;49.864;8.550;2023-05-10T01:51:22;13.50;96.80
10089;DHT22;51898;49.864;8.550;2023-05-10T01:54:25;13.50;96.70
10089;DHT22;51898;49.864;8.550;2023-05-10T01:57:32;13.50;96.60
10089;DHT22;51898;49.864;8.550;2023-05-10T02:00:35;13.50;96.60
10089;DHT22;51898;49.864;8.550;2023-05-10T02:03:38;13.40;96.90
10089;DHT22;51898;49.864;8.550;2023-05-10T02:06:42;13.40;97.00
10089;DHT22;51898;49.864;8.550;2023-05-10T02:09:45;13.40;96.90
10089;DHT22;51898;49.864;8.550;2023-05-10T02:12:51;13.40;96.90
10089;DHT22;51898;49.864;8.550;2023-05-10T02:15:54;13.40;96.80
10089;DHT22;51898;49.864;8.550;2023-05-10T02:18:57;13.50;96.70
10089;DHT22;51898;49.864;8.550;2023-05-10T02:22:00;13.40;96.20
10089;DHT22;51898;49.864;8.550;2023-05-10T02:25:03;13.40;96.20
10089;DHT22;51898;49.864;8.550;2023-05-10T02:28:06;13.40;96.10
10089;DHT22;51898;49.864;8.550;2023-05-10T02:31:09;13.40;96.10
10089;DHT22;51898;49.864;8.550;2023-05-10T02:34:12;13.40;96.00
10089;DHT22;51898;49.864;8.550;2023-05-10T02:37:15;13.40;96.00
10089;DHT22;51898;49.864;8.550;2023-05-10T02:40:17;13.40;96.10
10089;DHT22;51898;49.864;8.550;2023-05-10T02:43:22;13.40;96.10
10089;DHT22;51898;49.864;8.550;2023-05-10T02:46:25;13.40;96.10
10089;DHT22;51898;49.864;8.550;2023-05-10T02:49:26;13.40;96.20
10089;DHT22;51898;49.864;8.550;2023-05-10T02:52:39;13.40;96.20
10089;DHT22;51898;49.864;8.550;2023-05-10T02:55:41;13.40;96.00
10089;DHT22;51898;49.864;8.550;2023-05-10T02:58:45;13.40;96.20
10089;DHT22;51898;49.864;8.550;2023-05-10T03:01:47;13.40;96.20
10089;DHT22;51898;49.864;8.550;2023-05-10T03:04:49;13.40;96.20
10089;DHT22;51898;49.864;8.550;2023-05-10T03:07:51;13.40;95.90
10089;DHT22;51898;49.864;8.550;2023-05-10T03:14:32;13.50;95.70
10089;DHT22;51898;49.864;8.550;2023-05-10T03:17:45;13.40;96.00
10089;DHT22;51898;49.864;8.550;2023-05-10T03:20:50;13.50;96.00
10089;DHT22;51898;49.864;8.550;2023-05-10T03:23:59;13.50;95.90
10089;DHT22;51898;49.864;8.550;2023-05-10T03:27:05;13.50;96.00
10089;DHT22;51898;49.864;8.550;2023-05-10T03:30:11;13.50;96.00
10089;DHT22;51898;49.864;8.550;2023-05-10T03:33:13;13.50;95.90
10089;DHT22;51898;49.864;8.550;2023-05-10T03:36:15;13.50;95.50
10089;DHT22;51898;49.864;8.550;2023-05-10T03:39:17;13.50;95.30
10089;DHT22;51898;49.864;8.550;2023-05-10T03:42:19;13.50;95.20
10089;DHT22;51898;49.864;8.550;2023-05-10T03:45:21;13.50;95.30
10089;DHT22;51898;49.864;8.550;2023-05-10T03:48:22;13.50;95.30
10089;DHT22;51898;49.864;8.550;2023-05-10T03:51:24;13.50;95.40
10089;DHT22;51898;49.864;8.550;2023-05-10T03:54:29;13.40;95.70
10089;DHT22;51898;49.864;8.550;2023-05-10T03:57:31;13.40;95.70
10089;DHT22;51898;49.864;8.550;2023-05-10T04:00:32;13.40;95.40
10089;DHT22;51898;49.864;8.550;2023-05-10T04:03:34;13.40;95.40
10089;DHT22;51898;49.864;8.550;2023-05-10T04:06:38;13.30;95.20
10089;DHT22;51898;49.864;8.550;2023-05-10T04:09:40;13.30;95.40
10089;DHT22;51898;49.864;8.550;2023-05-10T04:12:41;13.30;95.50
10089;DHT22;51898;49.864;8.550;2023-05-10T04:15:43;13.30;95.30
10089;DHT22;51898;49.864;8.550;2023-05-10T04:18:46;13.40;95.40
10089;DHT22;51898;49.864;8.550;2023-05-10T04:21:48;13.30;95.50
10089;DHT22;51898;49.864;8.550;2023-05-10T04:24:50;13.40;95.70
10089;DHT22;51898;49.864;8.550;2023-05-10T04:27:51;13.40;95.50
10089;DHT22;51898;49.864;8.550;2023-05-10T04:30:59;13.40;95.70
10089;DHT22;51898;49.864;8.550;2023-05-10T04:34:01;13.40;95.70
10089;DHT22;51898;49.864;8.550;2023-05-10T04:37:03;13.40;95.40
10089;DHT22;51898;49.864;8.550;2023-05-10T04:40:05;13.40;95.10
10089;DHT22;51898;49.864;8.550;2023-05-10T04:43:07;13.40;95.20
10089;DHT22;51898;49.864;8.550;2023-05-10T04:46:09;13.40;95.10
10089;DHT22;51898;49.864;8.550;2023-05-10T04:49:10;13.50;94.90
10089;DHT22;51898;49.864;8.550;2023-05-10T04:52:12;13.50;94.80
10089;DHT22;51898;49.864;8.550;2023-05-10T04:55:15;13.60;94.60
10089;DHT22;51898;49.864;8.550;2023-05-10T04:58:17;13.60;94.50
10089;DHT22;51898;49.864;8.550;2023-05-10T05:01:19;13.60;94.30
10089;DHT22;51898;49.864;8.550;2023-05-10T05:04:20;13.60;94.00
10089;DHT22;51898;49.864;8.550;2023-05-10T05:07:24;13.60;93.60
10089;DHT22;51898;49.864;8.550;2023-05-10T05:10:25;13.60;93.50
10089;DHT22;51898;49.864;8.550;2023-05-10T05:13:27;13.60;93.30
10089;DHT22;51898;49.864;8.550;2023-05-10T05:16:30;13.70;92.90
10089;DHT22;51898;49.864;8.550;2023-05-10T05:19:32;13.70;92.70
10089;DHT22;51898;49.864;8.550;2023-05-10T05:22:36;13.70;92.00
10089;DHT22;51898;49.864;8.550;2023-05-10T05:25:37;13.70;91.90
10089;DHT22;51898;49.864;8.550;2023-05-10T05:28:39;13.70;91.40
10089;DHT22;51898;49.864;8.550;2023-05-10T05:31:40;13.80;91.40
10089;DHT22;51898;49.864;8.550;2023-05-10T05:34:44;13.80;91.30
10089;DHT22;51898;49.864;8.550;2023-05-10T05:37:46;13.90;91.00
10089;DHT22;51898;49.864;8.550;2023-05-10T05:40:48;13.80;91.00
10089;DHT22;51898;49.864;8.550;2023-05-10T05:43:50;13.90;90.40
10089;DHT22;51898;49.864;8.550;2023-05-10T05:46:51;13.90;90.50
10089;DHT22;51898;49.864;8.550;2023-05-10T05:49:53;14.00;90.10
10089;DHT22;51898;49.864;8.550;2023-05-10T05:52:55;14.10;90.20
10089;DHT22;51898;49.864;8.550;2023-05-10T05:55:58;14.20;90.20
10089;DHT22;51898;49.864;8.550;2023-05-10T05:59:00;14.30;90.50
10089;DHT22;51898;49.864;8.550;2023-05-10T06:02:01;14.40;90.40
10089;DHT22;51898;49.864;8.550;2023-05-10T06:05:03;14.60;90.40
10089;DHT22;51898;49.864;8.550;2023-05-10T06:08:05;14.70;89.80
10089;DHT22;51898;49.864;8.550;2023-05-10T06:11:07;14.80;89.00
10089;DHT22;51898;49.864;8.550;2023-05-10T06:14:08;14.80;88.70
10089;DHT22;51898;49.864;8.550;2023-05-10T06:17:10;14.90;87.80
10089;DHT22;51898;49.864;8.550;2023-05-10T06:20:12;15.00;87.70
10089;DHT22;51898;49.864;8.550;2023-05-10T06:23:14;15.10;86.90
10089;DHT22;51898;49.864;8.550;2023-05-10T06:26:16;15.20;87.20
10089;DHT22;51898;49.864;8.550;2023-05-10T06:29:17;15.30;87.80
10089;DHT22;51898;49.864;8.550;2023-05-10T06:32:19;15.40;87.30
10089;DHT22;51898;49.864;8.550;2023-05-10T06:35:20;15.50;86.50
10089;DHT22;51898;49.864;8.550;2023-05-10T06:38:22;15.50;86.00
10089;DHT22;51898;49.864;8.550;2023-05-10T06:41:24;15.60;86.70
10089;DHT22;51898;49.864;8.550;2023-05-10T06:44:26;15.60;85.90
10089;DHT22;51898;49.864;8.550;2023-05-10T06:47:27;15.70;85.40
10089;DHT22;51898;49.864;8.550;2023-05-10T06:50:29;15.70;85.70
10089;DHT22;51898;49.864;8.550;2023-05-10T06:53:31;15.80;85.40
10089;DHT22;51898;49.864;8.550;2023-05-10T06:56:32;15.80;86.00
10089;DHT22;51898;49.864;8.550;2023-05-10T06:59:34;15.90;85.20
10089;DHT22;51898;49.864;8.550;2023-05-10T07:02:35;15.80;84.60
10089;DHT22;51898;49.864;8.550;2023-05-10T07:05:37;15.70;84.70
10089;DHT22;51898;49.864;8.550;2023-05-10T07:08:39;15.70;84.50
10089;DHT22;51898;49.864;8.550;2023-05-10T07:11:41;15.70;85.40
10089;DHT22;51898;49.864;8.550;2023-05-10T07:14:42;15.80;84.10
10089;DHT22;51898;49.864;8.550;2023-05-10T07:17:44;15.70;84.60
10089;DHT22;51898;49.864;8.550;2023-05-10T07:20:47;15.90;83.70
10089;DHT22;51898;49.864;8.550;2023-05-10T07:23:48;15.90;83.60
10089;DHT22;51898;49.864;8.550;2023-05-10T07:26:50;16.00;84.00
10089;DHT22;51898;49.864;8.550;2023-05-10T07:29:52;16.20;83.00
10089;DHT22;51898;49.864;8.550;2023-05-10T07:32:54;16.40;82.90
10089;DHT22;51898;49.864;8.550;2023-05-10T07:35:55;16.60;81.20
10089;DHT22;51898;49.864;8.550;2023-05-10T07:38:57;16.60;80.40
10089;DHT22;51898;49.864;8.550;2023-05-10T07:41:59;16.70;80.60
10089;DHT22;51898;49.864;8.550;2023-05-10T07:45:00;16.70;80.10
10089;DHT22;51898;49.864;8.550;2023-05-10T07:48:02;16.70;80.00
10089;DHT22;51898;49.864;8.550;2023-05-10T07:51:04;16.70;80.00
10089;DHT22;51898;49.864;8.550;2023-05-10T07:54:06;16.80;79.90
10089;DHT22;51898;49.864;8.550;2023-05-10T07:57:07;16.90;79.30
10089;DHT22;51898;49.864;8.550;2023-05-10T08:00:12;17.00;78.90
10089;DHT22;51898;49.864;8.550;2023-05-10T08:03:14;17.10;78.60
10089;DHT22;51898;49.864;8.550;2023-05-10T08:06:18;17.20;78.70
10089;DHT22;51898;49.864;8.550;2023-05-10T08:09:20;17.00;78.30
10089;DHT22;51898;49.864;8.550;2023-05-10T08:12:25;16.80;79.10
10089;DHT22;51898;49.864;8.550;2023-05-10T08:15:26;16.70;79.60
10089;DHT22;51898;49.864;8.550;2023-05-10T08:18:28;16.50;81.20
10089;DHT22;51898;49.864;8.550;2023-05-10T08:21:30;16.10;82.90
10089;DHT22;51898;49.864;8.550;2023-05-10T08:24:32;15.80;83.40
10089;DHT22;51898;49.864;8.550;2023-05-10T08:27:39;15.70;84.90
10089;DHT22;51898;49.864;8.550;2023-05-10T08:30:41;15.60;86.10
10089;DHT22;51898;49.864;8.550;2023-05-10T08:33:43;15.60;87.00
10089;DHT22;51898;49.864;8.550;2023-05-10T08:36:45;15.60;86.90
10089;DHT22;51898;49.864;8.550;2023-05-10T08:39:47;15.70;86.70
10089;DHT22;51898;49.864;8.550;2023-05-10T08:46:05;15.90;84.50
10089;DHT22;51898;49.864;8.550;2023-05-10T08:49:07;16.10;85.10
10089;DHT22;51898;49.864;8.550;2023-05-10T08:52:13;16.30;83.70
10089;DHT22;51898;49.864;8.550;2023-05-10T08:55:16;16.50;82.10
10089;DHT22;51898;49.864;8.550;2023-05-10T08:58:19;16.70;80.90
10089;DHT22;51898;49.864;8.550;2023-05-10T09:01:21;16.90;81.60
10089;DHT22;51898;49.864;8.550;2023-05-10T09:04:24;17.20;79.60
10089;DHT22;51898;49.864;8.550;2023-05-10T09:07:27;17.40;77.40
10089;DHT22;51898;49.864;8.550;2023-05-10T09:10:29;17.70;78.60
10089;DHT22;51898;49.864;8.550;2023-05-10T09:13:32;18.10;76.50
10089;DHT22;51898;49.864;8.550;2023-05-10T09:16:34;18.30;74.20
10089;DHT22;51898;49.864;8.550;2023-05-10T09:19:36;18.50;72.70
10089;DHT22;51898;49.864;8.550;2023-05-10T09:22:37;18.50;72.10
10089;DHT22;51898;49.864;8.550;2023-05-10T09:25:41;18.40;73.60
10089;DHT22;51898;49.864;8.550;2023-05-10T09:28:57;17.70;73.90
10089;DHT22;51898;49.864;8.550;2023-05-10T09:31:59;16.90;76.20
10089;DHT22;51898;49.864;8.550;2023-05-10T09:35:16;16.40;79.80
10089;DHT22;51898;49.864;8.550;2023-05-10T09:38:18;16.30;80.40
10089;DHT22;51898;49.864;8.550;2023-05-10T09:41:21;16.30;82.00
10089;DHT22;51898;49.864;8.550;2023-05-10T09:44:25;16.30;81.80
10089;DHT22;51898;49.864;8.550;2023-05-10T09:47:27;16.40;83.50
10089;DHT22;51898;49.864;8.550;2023-05-10T09:50:30;16.40;81.50
10089;DHT22;51898;49.864;8.550;2023-05-10T09:53:31;16.40;83.00
10089;DHT22;51898;49.864;8.550;2023-05-10T09:56:34;16.60;80.50
10089;DHT22;51898;49.864;8.550;2023-05-10T09:59:42;16.60;80.50
10089;DHT22;51898;49.864;8.550;2023-05-10T10:02:53;16.60;79.80
10089;DHT22;51898;49.864;8.550;2023-05-10T10:05:55;16.70;78.50
10089;DHT22;51898;49.864;8.550;2023-05-10T10:08:58;16.70;79.00
10089;DHT22;51898;49.864;8.550;2023-05-10T10:12:03;16.80;77.30
10089;DHT22;51898;49.864;8.550;2023-05-10T10:15:05;17.00;76.10
10089;DHT22;51898;49.864;8.550;2023-05-10T10:18:12;17.00;75.00
10089;DHT22;51898;49.864;8.550;2023-05-10T10:21:15;17.20;77.80
10089;DHT22;51898;49.864;8.550;2023-05-10T10:24:17;17.40;73.90
10089;DHT22;51898;49.864;8.550;2023-05-10T10:27:34;17.50;73.30
10089;DHT22;51898;49.864;8.550;2023-05-10T10:30:43;17.50;73.70
10089;DHT22;51898;49.864;8.550;2023-05-10T10:34:06;17.40;70.80
10089;DHT22;51898;49.864;8.550;2023-05-10T10:37:08;17.50;70.40
10089;DHT22;51898;49.864;8.550;2023-05-10T10:40:30;17.50;70.90
10089;DHT22;51898;49.864;8.550;2023-05-10T10:43:35;17.30;71.40
10089;DHT22;51898;49.864;8.550;2023-05-10T10:47:00;16.90;71.40
10089;DHT22;51898;49.864;8.550;2023-05-10T10:50:07;16.60;73.20
10089;DHT22;51898;49.864;8.550;2023-05-10T10:53:10;16.50;72.80
10089;DHT22;51898;49.864;8.550;2023-05-10T10:56:13;16.20;72.50
10089;DHT22;51898;49.864;8.550;2023-05-10T10:59:27;16.10;74.50
10089;DHT22;51898;49.864;8.550;2023-05-10T11:06:00;15.80;76.10
10089;DHT22;51898;49.864;8.550;2023-05-10T11:09:11;15.80;76.30
10089;DHT22;51898;49.864;8.550;2023-05-10T11:12:13;15.90;77.30
10089;DHT22;51898;49.864;8.550;2023-05-10T11:15:14;16.30;75.20
10089;DHT22;51898;49.864;8.550;2023-05-10T11:18:36;16.70;76.00
10089;DHT22;51898;49.864;8.550;2023-05-10T11:21:46;17.20;72.40
10089;DHT22;51898;49.864;8.550;2023-05-10T11:24:58;17.50;69.80
10089;DHT22;51898;49.864;8.550;2023-05-10T11:28:02;17.90;69.00
10089;DHT22;51898;49.864;8.550;2023-05-10T11:31:05;18.00;69.10
10089;DHT22;51898;49.864;8.550;2023-05-10T11:34:07;18.20;68.90
10089;DHT22;51898;49.864;8.550;2023-05-10T11:37:09;18.50;65.80
10089;DHT22;51898;49.864;8.550;2023-05-10T11:40:11;18.90;64.40
10089;DHT22;51898;49.864;8.550;2023-05-10T11:43:13;19.00;64.10
10089;DHT22;51898;49.864;8.550;2023-05-10T11:46:15;19.20;63.30
10089;DHT22;51898;49.864;8.550;2023-05-10T11:49:20;19.50;62.50
10089;DHT22;51898;49.864;8.550;2023-05-10T11:52:24;19.90;61.40
10089;DHT22;51898;49.864;8.550;2023-05-10T11:55:26;20.40;58.20
10089;DHT22;51898;49.864;8.550;2023-05-10T11:58:27;20.70;58.80
10089;DHT22;51898;49.864;8.550;2023-05-10T12:01:30;20.60;57.50
10089;DHT22;51898;49.864;8.550;2023-05-10T12:04:32;20.90;60.00
10089;DHT22;51898;49.864;8.550;2023-05-10T12:07:33;21.20;56.90
10089;DHT22;51898;49.864;8.550;2023-05-10T12:10:35;21.10;58.60
10089;DHT22;51898;49.864;8.550;2023-05-10T12:13:42;20.90;56.90
10089;DHT22;51898;49.864;8.550;2023-05-10T12:16:44;20.70;55.80
10089;DHT22;51898;49.864;8.550;2023-05-10T12:19:46;20.60;55.00
10089;DHT22;51898;49.864;8.550;2023-05-10T12:22:53;20.60;53.20
10089;DHT22;51898;49.864;8.550;2023-05-10T12:26:02;20.30;55.00
10089;DHT22;51898;49.864;8.550;2023-05-10T12:29:12;20.50;53.80
10089;DHT22;51898;49.864;8.550;2023-05-10T12:32:15;20.50;54.80
10089;DHT22;51898;49.864;8.550;2023-05-10T12:35:16;20.60;56.70
10089;DHT22;51898;49.864;8.550;2023-05-10T12:38:37;20.50;55.60
10089;DHT22;51898;49.864;8.550;2023-05-10T12:41:39;20.50;55.80
10089;DHT22;51898;49.864;8.550;2023-05-10T12:44:44;20.30;55.70
10089;DHT22;51898;49.864;8.550;2023-05-10T12:47:46;20.20;57.30
10089;DHT22;51898;49.864;8.550;2023-05-10T12:50:47;20.20;56.20
10089;DHT22;51898;49.864;8.550;2023-05-10T12:53:49;20.30;57.50
10089;DHT22;51898;49.864;8.550;2023-05-10T12:56:51;20.50;56.90
10089;DHT22;51898;49.864;8.550;2023-05-10T12:59:53;20.50;55.20
10089;DHT22;51898;49.864;8.550;2023-05-10T13:02:55;20.30;53.90
10089;DHT22;51898;49.864;8.550;2023-05-10T13:05:56;20.00;52.00
10089;DHT22;51898;49.864;8.550;2023-05-10T13:08:58;19.90;52.30
10089;DHT22;51898;49.864;8.550;2023-05-10T13:12:00;19.80;53.50
10089;DHT22;51898;49.864;8.550;2023-05-10T13:15:02;19.70;53.70
10089;DHT22;51898;49.864;8.550;2023-05-10T13:18:04;19.50;54.50
10089;DHT22;51898;49.864;8.550;2023-05-10T13:21:06;19.10;56.60
10089;DHT22;51898;49.864;8.550;2023-05-10T13:24:08;18.90;59.90
10089;DHT22;51898;49.864;8.550;2023-05-10T13:27:11;18.90;61.60
10089;DHT22;51898;49.864;8.550;2023-05-10T13:30:13;18.90;62.20
10089;DHT22;51898;49.864;8.550;2023-05-10T13:33:14;19.20;62.60
10089;DHT22;51898;49.864;8.550;2023-05-10T13:36:16;19.40;62.30
10089;DHT22;51898;49.864;8.550;2023-05-10T13:39:18;19.60;60.90
10089;DHT22;51898;49.864;8.550;2023-05-10T13:42:19;19.90;58.90
10089;DHT22;51898;49.864;8.550;2023-05-10T13:45:21;20.20;58.10
10089;DHT22;51898;49.864;8.550;2023-05-10T13:48:23;20.10;56.20
10089;DHT22;51898;49.864;8.550;2023-05-10T13:51:25;20.10;56.90
10089;DHT22;51898;49.864;8.550;2023-05-10T13:54:26;20.30;55.90
10089;DHT22;51898;49.864;8.550;2023-05-10T13:57:30;20.20;56.70
10089;DHT22;51898;49.864;8.550;2023-05-10T14:00:32;20.30;56.10
10089;DHT22;51898;49.864;8.550;2023-05-10T14:03:34;20.40;56.20
10089;DHT22;51898;49.864;8.550;2023-05-10T14:06:36;20.50;57.40
10089;DHT22;51898;49.864;8.550;2023-05-10T14:09:38;20.40;56.50
10089;DHT22;51898;49.864;8.550;2023-05-10T14:12:39;20.10;57.60
10089;DHT22;51898;49.864;8.550;2023-05-10T14:15:41;20.10;59.50
10089;DHT22;51898;49.864;8.550;2023-05-10T14:18:43;19.90;58.20
10089;DHT22;51898;49.864;8.550;2023-05-10T14:21:44;19.60;58.90
10089;DHT22;51898;49.864;8.550;2023-05-10T14:24:46;19.40;59.10
10089;DHT22;51898;49.864;8.550;2023-05-10T14:27:48;19.20;60.10
10089;DHT22;51898;49.864;8.550;2023-05-10T14:30:50;19.10;59.00
10089;DHT22;51898;49.864;8.550;2023-05-10T14:33:52;19.00;59.90
10089;DHT22;51898;49.864;8.550;2023-05-10T14:36:54;19.00;58.90
10089;DHT22;51898;49.864;8.550;2023-05-10T14:39:56;19.20;57.70
10089;DHT22;51898;49.864;8.550;2023-05-10T14:42:58;19.20;57.80
10089;DHT22;51898;49.864;8.550;2023-05-10T14:45:59;19.40;57.80
10089;DHT22;51898;49.864;8.550;2023-05-10T14:49:01;19.70;58.00
10089;DHT22;51898;49.864;8.550;2023-05-10T14:52:03;19.90;55.90
10089;DHT22;51898;49.864;8.550;2023-05-10T14:55:05;19.70;56.80
10089;DHT22;51898;49.864;8.550;2023-05-10T14:58:07;19.70;57.50
10089;DHT22;51898;49.864;8.550;2023-05-10T15:01:08;19.60;56.70
10089;DHT22;51898;49.864;8.550;2023-05-10T15:04:10;19.50;57.00
10089;DHT22;51898;49.864;8.550;2023-05-10T15:07:14;19.40;59.50
10089;DHT22;51898;49.864;8.550;2023-05-10T15:10:18;19.30;59.40
10089;DHT22;51898;49.864;8.550;2023-05-10T15:13:19;19.20;57.30
10089;DHT22;51898;49.864;8.550;2023-05-10T15:16:21;19.00;57.30
10089;DHT22;51898;49.864;8.550;2023-05-10T15:19:23;19.00;56.60
10089;DHT22;51898;49.864;8.550;2023-05-10T15:22:25;19.10;56.10
10089;DHT22;51898;49.864;8.550;2023-05-10T15:25:27;19.00;55.80
10089;DHT22;51898;49.864;8.550;2023-05-10T15:28:30;19.00;55.40
10089;DHT22;51898;49.864;8.550;2023-05-10T15:31:33;19.20;55.90
10089;DHT22;51898;49.864;8.550;2023-05-10T15:34:38;19.30;54.50
10089;DHT22;51898;49.864;8.550;2023-05-10T15:37:39;19.20;54.40
10089;DHT22;51898;49.864;8.550;2023-05-10T15:40:41;19.10;53.60
10089;DHT22;51898;49.864;8.550;2023-05-10T15:43:42;19.10;55.40
10089;DHT22;51898;49.864;8.550;2023-05-10T15:46:44;19.20;56.00
10089;DHT22;51898;49.864;8.550;2023-05-10T15:49:46;19.40;54.70
10089;DHT22;51898;49.864;8.550;2023-05-10T15:52:48;19.50;53.70
10089;DHT22;51898;49.864;8.550;2023-05-10T15:55:50;19.50;53.30
10089;DHT22;51898;49.864;8.550;2023-05-10T15:58:52;19.40;54.40
10089;DHT22;51898;49.864;8.550;2023-05-10T16:01:53;19.60;53.90
10089;DHT22;51898;49.864;8.550;2023-05-10T16:04:55;19.70;54.00
10089;DHT22;51898;49.864;8.550;2023-05-10T16:07:57;19.80;52.90
10089;DHT22;51898;49.864;8.550;2023-05-10T16:10:59;19.80;52.90
10089;DHT22;51898;49.864;8.550;2023-05-10T16:14:01;19.80;53.60
10089;DHT22;51898;49.864;8.550;2023-05-10T16:17:02;19.80;53.00
10089;DHT22;51898;49.864;8.550;2023-05-10T16:20:05;19.80;52.90
10089;DHT22;51898;49.864;8.550;2023-05-10T16:23:07;20.10;53.00
10089;DHT22;51898;49.864;8.550;2023-05-10T16:26:09;20.40;51.20
10089;DHT22;51898;49.864;8.550;2023-05-10T16:29:10;20.80;51.10
10089;DHT22;51898;49.864;8.550;2023-05-10T16:32:12;21.00;50.40
10089;DHT22;51898;49.864;8.550;2023-05-10T16:35:14;21.40;48.70
10089;DHT22;51898;49.864;8.550;2023-05-10T16:38:16;21.70;47.80
10089;DHT22;51898;49.864;8.550;2023-05-10T16:41:17;22.10;47.70
10089;DHT22;51898;49.864;8.550;2023-05-10T16:44:19;22.40;46.90
10089;DHT22;51898;49.864;8.550;2023-05-10T16:47:22;22.60;46.80
10089;DHT22;51898;49.864;8.550;2023-05-10T16:50:26;22.90;46.10
10089;DHT22;51898;49.864;8.550;2023-05-10T16:53:28;23.00;45.90
10089;DHT22;51898;49.864;8.550;2023-05-10T16:56:31;22.90;45.40
10089;DHT22;51898;49.864;8.550;2023-05-10T16:59:32;22.50;45.30
10089;DHT22;51898;49.864;8.550;2023-05-10T17:02:34;22.10;45.40
10089;DHT22;51898;49.864;8.550;2023-05-10T17:05:36;21.70;46.20
10089;DHT22;51898;49.864;8.550;2023-05-10T17:08:38;21.60;46.40
10089;DHT22;51898;49.864;8.550;2023-05-10T17:11:39;21.50;45.90
10089;DHT22;51898;49.864;8.550;2023-05-10T17:14:42;21.40;46.20
10089;DHT22;51898;49.864;8.550;2023-05-10T17:17:44;21.40;46.40
10089;DHT22;51898;49.864;8.550;2023-05-10T17:20:45;21.40;47.60
10089;DHT22;51898;49.864;8.550;2023-05-10T17:23:47;21.40;48.20
10089;DHT22;51898;49.864;8.550;2023-05-10T17:26:49;21.40;48.30
10089;DHT22;51898;49.864;8.550;2023-05-10T17:29:57;21.30;49.10
10089;DHT22;51898;49.864;8.550;2023-05-10T17:32:59;21.30;48.30
10089;DHT22;51898;49.864;8.550;2023-05-10T17:36:01;21.20;49.70
10089;DHT22;51898;49.864;8.550;2023-05-10T17:39:03;21.10;49.40
10089;DHT22;51898;49.864;8.550;2023-05-10T17:42:04;20.90;49.70
10089;DHT22;51898;49.864;8.550;2023-05-10T17:45:06;20.70;49.80
10089;DHT22;51898;49.864;8.550;2023-05-10T17:48:08;20.50;50.40
10089;DHT22;51898;49.864;8.550;2023-05-10T17:51:11;20.30;50.40
10089;DHT22;51898;49.864;8.550;2023-05-10T17:54:13;20.20;51.10
10089;DHT22;51898;49.864;8.550;2023-05-10T17:57:15;20.00;52.70
10089;DHT22;51898;49.864;8.550;2023-05-10T18:00:17;19.80;53.20
10089;DHT22;51898;49.864;8.550;2023-05-10T18:03:19;19.60;51.90
10089;DHT22;51898;49.864;8.550;2023-05-10T18:06:21;19.40;52.90
10089;DHT22;51898;49.864;8.550;2023-05-10T18:09:23;19.10;53.60
10089;DHT22;51898;49.864;8.550;2023-05-10T18:12:24;19.00;54.00
10089;DHT22;51898;49.864;8.550;2023-05-10T18:15:26;18.80;53.80
10089;DHT22;51898;49.864;8.550;2023-05-10T18:18:28;18.70;53.60
10089;DHT22;51898;49.864;8.550;2023-05-10T18:21:29;18.60;54.10
10089;DHT22;51898;49.864;8.550;2023-05-10T18:24:32;18.40;55.10
10089;DHT22;51898;49.864;8.550;2023-05-10T18:27:36;18.40;55.30
10089;DHT22;51898;49.864;8.550;2023-05-10T18:30:39;18.30;56.50
10089;DHT22;51898;49.864;8.550;2023-05-10T18:33:41;18.20;56.40
10089;DHT22;51898;49.864;8.550;2023-05-10T18:36:43;18.10;56.50
10089;DHT22;51898;49.864;8.550;2023-05-10T18:39:45;17.90;56.90
10089;DHT22;51898;49.864;8.550;2023-05-10T18:42:46;17.80;57.20
10089;DHT22;51898;49.864;8.550;2023-05-10T18:45:50;17.70;57.60
10089;DHT22;51898;49.864;8.550;2023-05-10T18:48:53;17.50;57.90
10089;DHT22;51898;49.864;8.550;2023-05-10T18:51:55;17.40;58.30
10089;DHT22;51898;49.864;8.550;2023-05-10T18:54:56;17.20;58.90
10089;DHT22;51898;49.864;8.550;2023-05-10T18:57:58;17.10;59.80
10089;DHT22;51898;49.864;8.550;2023-05-10T19:01:00;17.00;60.50
10089;DHT22;51898;49.864;8.550;2023-05-10T19:04:02;16.90;60.80
10089;DHT22;51898;49.864;8.550;2023-05-10T19:07:04;16.70;61.10
10089;DHT22;51898;49.864;8.550;2023-05-10T19:10:06;16.60;61.40
10089;DHT22;51898;49.864;8.550;2023-05-10T19:13:08;16.50;61.50
10089;DHT22;51898;49.864;8.550;2023-05-10T19:16:11;16.40;61.90
10089;DHT22;51898;49.864;8.550;2023-05-10T19:19:13;16.30;62.20
10089;DHT22;51898;49.864;8.550;2023-05-10T19:22:15;16.20;62.50
10089;DHT22;51898;49.864;8.550;2023-05-10T19:25:17;16.10;62.70
10089;DHT22;51898;49.864;8.550;2023-05-10T19:28:21;16.00;62.90
10089;DHT22;51898;49.864;8.550;2023-05-10T19:31:23;15.90;63.70
10089;DHT22;51898;49.864;8.550;2023-05-10T19:34:24;15.80;64.00
10089;DHT22;51898;49.864;8.550;2023-05-10T19:37:27;15.70;64.30
10089;DHT22;51898;49.864;8.550;2023-05-10T19:40:29;15.60;64.90
10089;DHT22;51898;49.864;8.550;2023-05-10T19:43:31;15.50;65.80